Lake Levels
Share |
Lake Levels
LAKES RIVERS MARINAS NEWS HOUSES EVENTS CLASSIFIEDS MAPS
1,637 Lakes:
Lake Store

Lake Levels

LakeLevels.info is a national information and alert service for lake water levels in the United States. With a FREE member account you can receive water level alerts by email when the water level reaches your desired alert level.


We currently offer Lake Level information and alerts for 90 lakes and serve 9,233 members with 22,763 alerts.


Sign-up for a Lake Level Alert




Filter By State:
Lake Name Current
Level
Full Pool +/-
Full Pool
Reading
Date - Time
Alan Henry (TX) 2,210.59 2,224.00 -13.41 10/24/2014  12:30:00 AM
Amistad (TX) 1,084.40 1,117.00 -32.60 10/24/2014  8:15:00 AM
Amon Carter (TX) 912.27 920.00 -7.73 10/24/2014  12:00:00 AM
Aquilla (TX) 535.63 537.50 -1.87 10/24/2014  7:30:00 AM
Arlington (TX) 541.25 550.00 -8.75 10/24/2014  12:00:00 AM
Athens (TX) 438.36 440.00 -1.64 10/24/2014  4:30:00 AM
Austin (TX) 491.94 492.80 -0.86 10/23/2014  10:10:00 AM
Bardwell (TX) 419.06 421.00 -1.94 10/24/2014  12:30:00 AM
Belton (TX) 582.31 594.00 -11.69 10/24/2014  7:00:00 AM
Benbrook (TX) 685.68 694.00 -8.32 10/24/2014  6:00:00 AM
Bob Sandlin (TX) 334.97 337.50 -2.53 10/24/2014  9:56:00 AM
Bonham (TX) 562.14 565.00 -2.86 10/24/2014  4:00:00 AM
Brady Creek (TX) 1,727.06 1,743.00 -15.94 10/24/2014  9:45:00 AM
Bridgeport (TX) 812.38 836.00 -23.62 10/24/2014  12:00:00 AM
Brownwood (TX) 1,411.87 1,425.00 -13.13 10/24/2014  8:30:00 AM
Buchanan (TX) 986.36 1,020.50 -34.14 10/23/2014  10:10:00 AM
Caddo (LA TX) 168.60 168.50 0.10 10/24/2014  8:00:00 AM
Canyon (TX) 897.23 909.00 -11.77 10/24/2014  12:15:00 AM
Cedar Creek (TX) 316.62 ??? 10/24/2014  9:45:00 AM
Champion Creek (TX) 2,035.61 2,083.00 -47.39 10/23/2014  9:55:00 AM
Cherokee (TX) 277.73 280.00 -2.27 10/17/2014  7:30:00 AM
Choke Canyon (TX) 193.00 220.50 -27.50 10/24/2014  7:30:00 AM
Cisco (TX) 1,502.51 1,520.00 -17.49 10/24/2014  2:30:00 PM
Coleman (TX) 1,698.72 1,718.00 -19.28 10/24/2014  2:30:00 AM
Coleto Creek (TX) 93.81 98.28 -4.47 10/24/2014  12:00:00 AM
Colorado City (TX) 2,047.57 2,070.20 -22.63 10/23/2014  9:55:00 AM
Conroe (TX) 200.42 201.00 -0.58 10/24/2014  8:45:00 AM
Corpus Christi (TX) 86.26 94.00 -7.74 10/24/2014  9:14:00 AM
E. V. Spence (TX) 1,827.07 1,898.00 -70.93 10/24/2014  12:00:00 AM
Eagle Mountain (TX) 638.60 649.00 -10.40 10/24/2014  8:45:00 AM
Falcon (TX) 269.77 301.20 -31.43 10/23/2014  10:10:00 AM
Fork (TX) 396.77 403.00 -6.23 10/24/2014  6:30:00 AM
Georgetown (TX) 775.60 791.00 -15.40 10/24/2014  5:00:00 AM
Graham (TX) 1,060.84 1,075.00 -14.16 10/24/2014  6:00:00 AM
Granbury (TX) 683.40 693.00 -9.60 10/24/2014  9:30:00 AM
Granger (TX) 504.33 504.00 0.33 10/24/2014  12:00:00 AM
Grapevine (TX) 522.98 535.00 -12.02 10/24/2014  8:45:00 AM
Hords Creek (TX) 1,884.75 1,900.00 -15.25 10/24/2014  8:30:00 AM
Houston (TX) 42.11 41.70 0.41 10/24/2014  8:30:00 AM
Hubbard Creek (TX) 1,154.17 1,183.00 -28.83 10/24/2014  9:15:00 AM
Hubert M Moss (TX) 711.17 715.00 -3.83 10/24/2014  9:15:00 AM
Inks (TX) 887.16 886.90 0.26 10/24/2014  9:00:00 AM
Jacksonville (TX) 421.23 422.00 -0.77 10/24/2014  9:56:00 AM
JB Thomas (TX) 2,238.54 2,258.00 -19.46 10/24/2014  9:45:00 AM
Jim Chapman (TX) 428.38 440.00 -11.62 10/24/2014  9:56:00 AM
Joe Pool (TX) 520.36 522.00 -1.64 10/24/2014  12:00:00 AM
Lake O' the Pines (TX) 228.51 228.50 0.01 10/24/2014  9:56:00 AM
Lavon (TX) 479.46 492.00 -12.54 10/24/2014  9:00:00 AM
Leon (TX) 1,367.65 ??? 10/24/2014  12:45:00 AM
Lewisville (TX) 515.02 522.00 -6.98 10/24/2014  9:30:00 AM
Limestone (TX) 361.00 363.00 -2.00 10/24/2014  8:45:00 AM
Livingston (TX) 130.65 131.00 -0.35 10/24/2014  9:15:00 AM
Lyndon B. Johnson (TX) 824.63 825.00 -0.37 10/23/2014  10:10:00 AM
MacKenzie (TX) 3,010.04 3,100.00 -89.96 10/24/2014  12:30:00 AM
Marble Falls (TX) 736.35 737.00 -0.65 10/23/2014  10:10:00 AM
Martin Creek (TX) 303.93 306.00 -2.07 10/24/2014  5:30:00 AM
Medina (TX) 975.58 1,062.00 -86.42 10/24/2014  6:00:00 AM
Meredith (TX) 2,857.85 2,941.00 -83.15 10/24/2014  8:30:00 AM
Mexia (TX) 447.62 448.30 -0.68 10/24/2014  8:15:00 AM
Mineral Wells (TX) 855.09 863.00 -7.91 10/24/2014  11:30:00 AM
Moss Creek (TX) 2,328.94 2,337.00 -8.06 10/24/2014  9:45:00 AM
Murvaul (TX) 264.85 265.50 -0.65 10/24/2014  9:56:00 AM
Nacogdoches (TX) 278.29 279.00 -0.71 10/24/2014  9:56:00 AM
Natural Dam Salt (TX) 2,447.33 2,457.00 -9.67 10/23/2014  9:55:00 AM
Nocona (TX) 813.62 827.00 -13.38 10/24/2014  9:00:00 AM
O.H. Ivie (TX) 1,509.66 1,551.50 -41.84 10/24/2014  7:15:00 AM
Palestine (TX) 344.21 345.00 -0.79 10/24/2014  9:56:00 AM
Palo Pinto (TX) 848.90 867.00 -18.10 10/24/2014  7:15:00 AM
Pat Cleburne (TX) 727.79 733.60 -5.81 10/24/2014  12:00:00 AM
Pat Mayse (TX) 449.49 451.00 -1.51 10/24/2014  9:56:00 AM
Possum Kingdom (TX) 984.97 1,000.00 -15.03 10/24/2014  9:46:00 AM
Proctor (TX) 1,149.55 1,162.00 -12.45 10/24/2014  8:30:00 AM
Ray Hubbard (TX) 425.73 435.50 -9.77 10/24/2014  9:30:00 AM
Ray Roberts (TX) 625.19 632.50 -7.31 10/24/2014  1:15:00 AM
Red Bluff (TX) 2,824.48 2,827.13 -2.65 10/23/2014  9:55:00 AM
Richland Chambers (TX) 305.46 315.00 -9.54 10/24/2014  9:46:00 AM
Sam Rayburn (TX) 162.15 164.40 -2.25 10/24/2014  7:00:00 AM
Somerville (TX) 237.09 238.00 -0.91 10/24/2014  2:00:00 AM
Tawakoni (TX) 426.18 437.50 -11.32 10/24/2014  12:30:00 AM
Texana (TX) 40.40 44.00 -3.60 10/24/2014  7:00:00 AM
Texoma (TX) 610.79 617.00 -6.21 10/24/2014  9:00:00 AM
Toledo Bend (TX LA) 168.68 172.00 -3.32 10/24/2014  7:30:00 AM
Travis (TX) 623.34 681.00 -57.66 10/24/2014  9:00:00 AM
Twin Buttes (TX) 1,893.04 1,940.00 -46.96 10/24/2014  12:00:00 AM
Tyler (TX) 374.66 375.50 -0.84 10/24/2014  9:56:00 AM
Waco (TX) 459.36 462.00 -2.64 10/24/2014  12:15:00 AM
White River (TX) 2,343.73 ??? 10/24/2014  7:15:00 AM
Whitney (TX) 522.87 533.00 -10.13 10/24/2014  12:15:00 AM
Worth (TX) 590.50 594.00 -3.50 10/24/2014  9:00:00 AM
Wright Patman (TX) 225.54 220.60 4.94 10/24/2014  9:56:00 AM


Current Daily Streamflow Conditions
High
90th percentile
75th - 89th percentile
25th - 74th percentile
10th - 24th percentile
10th percentile
Low
Not ranked

The colored dots on this map depict streamflow conditions as a percentile, which is computed from the period of record for the current day of the year. Only stations with at least 30 years of record are used. The gray circles indicate other stations that were not ranked in percentiles either because they have fewer than 30 years of record or because they report parameters other than streamflow. Some stations, for example, measure stage only.
TX Daily Streamflow Conditions



U.S. Drought Monitor